sensor_id;sensor_type;location;lat;lon;timestamp;P1;durP1;ratioP1;P2;durP2;ratioP2
63406;SDS011;49543;45.892;10.838;2022-09-12T07:45:56;2.35;;;0.88;;
63406;SDS011;49543;45.892;10.838;2022-09-12T07:48:22;1.38;;;1.13;;
63406;SDS011;49543;45.892;10.838;2022-09-12T07:50:56;2.95;;;1.27;;
63406;SDS011;49543;45.892;10.838;2022-09-12T08:27:00;2.05;;;0.70;;
63406;SDS011;49543;45.892;10.838;2022-09-12T08:29:26;1.05;;;0.90;;
63406;SDS011;49543;45.892;10.838;2022-09-12T08:31:51;1.40;;;0.80;;
63406;SDS011;49543;45.892;10.838;2022-09-12T08:34:17;1.48;;;0.70;;
63406;SDS011;49543;45.892;10.838;2022-09-12T08:36:43;1.38;;;0.75;;
63406;SDS011;49543;45.892;10.838;2022-09-12T08:39:10;2.55;;;0.85;;
63406;SDS011;49543;45.892;10.838;2022-09-12T08:41:37;2.20;;;0.98;;
63406;SDS011;49543;45.892;10.838;2022-09-12T08:49:26;2.45;;;1.00;;
63406;SDS011;49543;45.892;10.838;2022-09-12T08:51:58;2.50;;;0.80;;
63406;SDS011;49543;45.892;10.838;2022-09-12T08:54:27;1.23;;;1.05;;
63406;SDS011;49543;45.892;10.838;2022-09-12T08:57:11;0.98;;;0.93;;
63406;SDS011;49543;45.892;10.838;2022-09-12T08:59:42;1.95;;;0.82;;
63406;SDS011;49543;45.892;10.838;2022-09-12T09:07:52;1.25;;;0.70;;
63406;SDS011;49543;45.892;10.838;2022-09-12T09:10:50;2.03;;;1.00;;
63406;SDS011;49543;45.892;10.838;2022-09-12T09:16:29;3.97;;;1.05;;
63406;SDS011;49543;45.892;10.838;2022-09-12T09:19:00;0.95;;;0.80;;
63406;SDS011;49543;45.892;10.838;2022-09-12T09:21:36;1.98;;;1.15;;
63406;SDS011;49543;45.892;10.838;2022-09-12T09:24:12;2.80;;;2.38;;
63406;SDS011;49543;45.892;10.838;2022-09-12T09:26:44;0.90;;;0.90;;
63406;SDS011;49543;45.892;10.838;2022-09-12T09:29:16;1.88;;;1.00;;
63406;SDS011;49543;45.892;10.838;2022-09-12T09:31:47;2.30;;;1.10;;
63406;SDS011;49543;45.892;10.838;2022-09-12T09:34:20;0.63;;;0.63;;
63406;SDS011;49543;45.892;10.838;2022-09-12T09:44:46;2.10;;;0.70;;
63406;SDS011;49543;45.892;10.838;2022-09-12T09:47:13;0.80;;;0.80;;
63406;SDS011;49543;45.892;10.838;2022-09-12T09:49:39;0.73;;;0.73;;
63406;SDS011;49543;45.892;10.838;2022-09-12T09:52:06;1.00;;;0.68;;
63406;SDS011;49543;45.892;10.838;2022-09-12T09:54:34;0.60;;;0.60;;
63406;SDS011;49543;45.892;10.838;2022-09-12T09:57:03;1.17;;;0.75;;
63406;SDS011;49543;45.892;10.838;2022-09-12T09:59:30;6.03;;;2.65;;
63406;SDS011;49543;45.892;10.838;2022-09-12T10:01:58;1.43;;;1.33;;
63406;SDS011;49543;45.892;10.838;2022-09-12T10:04:34;1.08;;;0.68;;
63406;SDS011;49543;45.892;10.838;2022-09-12T10:07:03;1.73;;;0.80;;
63406;SDS011;49543;45.892;10.838;2022-09-12T10:09:32;1.20;;;1.08;;
63406;SDS011;49543;45.892;10.838;2022-09-12T11:40:54;1.17;;;0.80;;
63406;SDS011;49543;45.892;10.838;2022-09-12T16:46:41;1.95;;;1.55;;
63406;SDS011;49543;45.892;10.838;2022-09-12T16:48:59;2.83;;;1.67;;
63406;SDS011;49543;45.892;10.838;2022-09-12T16:51:28;2.00;;;1.40;;
63406;SDS011;49543;45.892;10.838;2022-09-12T16:54:15;1.95;;;1.70;;
63406;SDS011;49543;45.892;10.838;2022-09-12T16:56:41;3.72;;;1.70;;
63406;SDS011;49543;45.892;10.838;2022-09-12T16:59:10;1.80;;;1.70;;
63406;SDS011;49543;45.892;10.838;2022-09-12T17:01:40;1.70;;;1.60;;
63406;SDS011;49543;45.892;10.838;2022-09-12T17:04:08;3.40;;;1.65;;
63406;SDS011;49543;45.892;10.838;2022-09-12T17:06:35;2.47;;;1.52;;
63406;SDS011;49543;45.892;10.838;2022-09-12T17:09:00;1.98;;;1.63;;
63406;SDS011;49543;45.892;10.838;2022-09-12T17:11:29;1.92;;;1.70;;
63406;SDS011;49543;45.892;10.838;2022-09-12T17:13:57;2.47;;;1.58;;
63406;SDS011;49543;45.892;10.838;2022-09-12T17:16:24;1.95;;;1.40;;
63406;SDS011;49543;45.892;10.838;2022-09-12T17:18:50;1.95;;;1.67;;
63406;SDS011;49543;45.892;10.838;2022-09-12T17:21:17;2.60;;;1.75;;
63406;SDS011;49543;45.892;10.838;2022-09-12T17:23:43;2.03;;;1.67;;
63406;SDS011;49543;45.892;10.838;2022-09-12T17:26:10;5.85;;;4.38;;
63406;SDS011;49543;45.892;10.838;2022-09-12T17:28:36;3.33;;;2.63;;
63406;SDS011;49543;45.892;10.838;2022-09-12T17:31:04;4.75;;;2.17;;
63406;SDS011;49543;45.892;10.838;2022-09-12T17:33:32;2.00;;;1.80;;
63406;SDS011;49543;45.892;10.838;2022-09-12T17:36:01;3.22;;;1.90;;
63406;SDS011;49543;45.892;10.838;2022-09-12T17:38:32;2.10;;;1.90;;
63406;SDS011;49543;45.892;10.838;2022-09-12T17:43:44;2.58;;;1.73;;
63406;SDS011;49543;45.892;10.838;2022-09-12T17:46:12;1.73;;;1.50;;
63406;SDS011;49543;45.892;10.838;2022-09-12T17:48:38;1.88;;;1.52;;
63406;SDS011;49543;45.892;10.838;2022-09-12T17:51:06;1.90;;;1.48;;
63406;SDS011;49543;45.892;10.838;2022-09-12T17:53:37;1.70;;;1.60;;
63406;SDS011;49543;45.892;10.838;2022-09-12T17:56:04;1.83;;;1.58;;
63406;SDS011;49543;45.892;10.838;2022-09-12T17:58:30;2.72;;;1.80;;
63406;SDS011;49543;45.892;10.838;2022-09-12T20:38:49;1.70;;;1.60;;
63406;SDS011;49543;45.892;10.838;2022-09-12T20:41:24;2.30;;;1.98;;
63406;SDS011;49543;45.892;10.838;2022-09-12T20:43:52;2.10;;;2.00;;
63406;SDS011;49543;45.892;10.838;2022-09-12T20:46:19;3.33;;;2.08;;
63406;SDS011;49543;45.892;10.838;2022-09-12T20:48:45;2.47;;;1.65;;
63406;SDS011;49543;45.892;10.838;2022-09-12T20:51:11;2.70;;;1.80;;
63406;SDS011;49543;45.892;10.838;2022-09-12T20:53:37;2.13;;;1.77;;
63406;SDS011;49543;45.892;10.838;2022-09-12T20:56:03;4.13;;;2.72;;
63406;SDS011;49543;45.892;10.838;2022-09-12T20:58:31;4.45;;;2.20;;
63406;SDS011;49543;45.892;10.838;2022-09-12T21:00:57;2.60;;;2.10;;
63406;SDS011;49543;45.892;10.838;2022-09-12T21:03:23;2.38;;;2.17;;
63406;SDS011;49543;45.892;10.838;2022-09-12T21:05:52;2.58;;;2.03;;
63406;SDS011;49543;45.892;10.838;2022-09-12T21:08:17;2.20;;;2.00;;
63406;SDS011;49543;45.892;10.838;2022-09-12T21:10:43;3.40;;;2.00;;
63406;SDS011;49543;45.892;10.838;2022-09-12T21:13:09;2.33;;;1.77;;
63406;SDS011;49543;45.892;10.838;2022-09-12T21:15:36;2.97;;;2.35;;
63406;SDS011;49543;45.892;10.838;2022-09-12T21:18:02;2.47;;;2.08;;
63406;SDS011;49543;45.892;10.838;2022-09-12T21:20:28;2.70;;;1.73;;
63406;SDS011;49543;45.892;10.838;2022-09-12T21:22:53;2.50;;;1.90;;
63406;SDS011;49543;45.892;10.838;2022-09-12T21:25:19;2.83;;;2.20;;
63406;SDS011;49543;45.892;10.838;2022-09-12T21:27:44;4.10;;;2.50;;
63406;SDS011;49543;45.892;10.838;2022-09-12T21:30:10;3.28;;;2.65;;
63406;SDS011;49543;45.892;10.838;2022-09-12T21:32:36;3.53;;;2.42;;
63406;SDS011;49543;45.892;10.838;2022-09-12T21:35:02;2.78;;;2.00;;
63406;SDS011;49543;45.892;10.838;2022-09-12T21:37:29;4.38;;;2.20;;
63406;SDS011;49543;45.892;10.838;2022-09-12T21:39:55;2.80;;;2.10;;
63406;SDS011;49543;45.892;10.838;2022-09-12T21:42:22;3.20;;;2.15;;
63406;SDS011;49543;45.892;10.838;2022-09-12T21:44:48;3.17;;;1.95;;
63406;SDS011;49543;45.892;10.838;2022-09-12T21:47:13;5.03;;;2.00;;
63406;SDS011;49543;45.892;10.838;2022-09-12T21:49:39;3.05;;;2.10;;
63406;SDS011;49543;45.892;10.838;2022-09-12T21:52:04;3.08;;;2.00;;
63406;SDS011;49543;45.892;10.838;2022-09-12T21:54:30;3.92;;;2.20;;
63406;SDS011;49543;45.892;10.838;2022-09-12T21:56:59;2.30;;;2.00;;
63406;SDS011;49543;45.892;10.838;2022-09-12T21:59:24;2.95;;;2.10;;
63406;SDS011;49543;45.892;10.838;2022-09-12T22:01:50;2.88;;;1.55;;
63406;SDS011;49543;45.892;10.838;2022-09-12T22:04:15;2.13;;;1.92;;
